Terminal Aerodrome Forecast
Issued by NWS

Home | Current Version | Previous Version | Text Only | Print | Product List | Glossary On
Versions: 1 2 3 4 5 6 7 8 9 10 11 12 13 14 15 16 17 18 19 20 21 22 23 24 25 26 27 28 29 30 31 32 33 34 35 36 37 38 39
000
FTUS44 KHGX 260602 AAA
TAFCXO
TAF AMD
KCXO 260602Z 2606/2706 33011KT P6SM SCT250 WS015/34045KT
     FM261600 28007KT P6SM SCT250
     FM270000 21003KT P6SM SCT250=

USA.gov is the U.S. government's official web portal to all federal, state and local government web resources and services.